Terminal Aerodrome Forecast
Issued by NWS

Home | Current Version | Previous Version | Text Only | Print | Product List | Glossary On
Versions: 1 2 3 4 5 6 7 8 9 10 11 12 13 14 15 16 17 18 19 20 21 22 23 24 25 26 27 28 29 30 31 32 33 34 35 36 37 38 39 40 41 42 43 44 45 46
143
FTUS45 KLKN 210331 AAB
TAFELY
TAF AMD
KELY 210331Z 2104/2124 19010KT P6SM -SN SCT020 OVC040
      TEMPO 2104/2106 22020G30KT 2SM -SN BR BKN015
     FM210600 20008KT 6SM -SN BR BKN016 OVC040
     FM211400 26008KT 6SM BR VCSH BKN010 OVC030
     FM212000 32006KT P6SM SCT030 OVC060=

USA.gov is the U.S. government's official web portal to all federal, state and local government web resources and services.